Time;durP1;ratioP1;P1;durP2;ratioP2;P2;SDS_P1;SDS_P2;PMS_P1;PMS_P2;Temp;Humidity;BMP_temperature;BMP_pressure;BME280_temperature;BME280_humidity;BME280_pressure;Samples;Min_cycle;Max_cycle;Signal;HPM_P1;HPM_P2
2023/10/17 00:02:03;;;;;;;3.33;1.97;;;8.20;99.90;;;;;;4992854;28;20364;-74
2023/10/17 00:04:33;;;;;;;3.50;1.97;;;8.30;99.90;;;;;;4986675;28;20230;-73
2023/10/17 00:07:02;;;;;;;4.40;2.10;;;8.30;99.90;;;;;;5000854;28;20217;-74
2023/10/17 00:09:36;;;;;;;5.33;2.10;;;8.30;99.90;;;;;;4992457;28;20288;-75
2023/10/17 00:17:18;;;;;;;3.23;1.87;;;8.30;99.90;;;;;;4996794;28;20236;-73
2023/10/17 00:19:45;;;;;;;5.40;2.03;;;8.30;99.90;;;;;;5000331;28;20239;-74
2023/10/17 00:22:16;;;;;;;5.27;2.53;;;8.30;99.90;;;;;;4995133;28;20236;-75
2023/10/17 00:24:46;;;;;;;2.40;1.60;;;8.30;99.90;;;;;;4997862;28;20243;-75
2023/10/17 00:27:11;;;;;;;3.13;1.93;;;8.30;99.90;;;;;;4995789;28;20201;-74
2023/10/17 00:29:37;;;;;;;3.40;1.70;;;8.30;99.90;;;;;;4998001;28;20675;-75
2023/10/17 00:32:02;;;;;;;4.60;2.20;;;8.30;99.90;;;;;;4993702;28;20206;-75
2023/10/17 00:34:28;;;;;;;4.23;2.13;;;8.30;99.90;;;;;;4995391;28;20220;-75
2023/10/17 00:37:14;;;;;;;5.20;2.10;;;8.30;99.90;;;;;;4989016;28;20301;-74
2023/10/17 00:39:39;;;;;;;6.00;2.03;;;8.30;99.90;;;;;;4987387;28;20296;-75
2023/10/17 00:44:40;;;;;;;4.33;2.10;;;8.30;99.90;;;;;;4999909;28;20178;-76
2023/10/17 00:47:08;;;;;;;5.50;2.23;;;8.30;99.90;;;;;;4999314;28;20209;-75
2023/10/17 00:49:41;;;;;;;4.63;1.60;;;8.30;99.90;;;;;;4999284;28;20308;-76
2023/10/17 00:52:25;;;;;;;4.70;2.17;;;8.30;99.90;;;;;;4998434;28;20205;-76
2023/10/17 00:54:53;;;;;;;5.17;2.23;;;8.30;99.90;;;;;;4995544;28;20251;-75
2023/10/17 00:57:22;;;;;;;2.93;2.13;;;8.30;99.90;;;;;;4997209;28;20221;-75
2023/10/17 00:59:50;;;;;;;4.23;2.40;;;8.30;99.90;;;;;;4999496;28;20631;-75
2023/10/17 01:02:23;;;;;;;3.60;2.00;;;8.40;99.90;;;;;;4996508;28;20221;-75
2023/10/17 01:04:51;;;;;;;5.07;2.33;;;8.40;99.90;;;;;;4989519;28;20271;-76
2023/10/17 01:07:34;;;;;;;5.50;2.47;;;8.30;99.90;;;;;;4988768;28;20691;-75
2023/10/17 01:10:10;;;;;;;4.70;2.40;;;8.30;99.90;;;;;;4982654;28;20221;-76
2023/10/17 01:15:28;;;;;;;2.87;2.30;;;8.40;99.90;;;;;;4991514;28;20597;-72
2023/10/17 01:17:54;;;;;;;4.03;2.07;;;8.40;99.90;;;;;;4992801;28;20550;-75
2023/10/17 01:20:21;;;;;;;2.33;2.00;;;8.30;99.90;;;;;;4995961;28;20226;-75
2023/10/17 01:22:47;;;;;;;5.63;2.23;;;8.40;99.90;;;;;;5002220;28;20212;-75
2023/10/17 01:25:26;;;;;;;3.30;2.00;;;8.40;99.90;;;;;;4998719;28;20209;-75
2023/10/17 01:27:53;;;;;;;4.07;2.10;;;8.40;99.90;;;;;;4999647;28;20220;-76
2023/10/17 01:30:19;;;;;;;3.27;2.00;;;8.40;99.90;;;;;;4984795;28;20194;-75
2023/10/17 01:32:47;;;;;;;5.10;2.10;;;8.50;99.90;;;;;;4993979;28;20182;-75
2023/10/17 01:35:12;;;;;;;3.53;1.93;;;8.50;99.90;;;;;;4993421;28;20205;-76
2023/10/17 01:37:39;;;;;;;3.27;2.17;;;8.50;99.90;;;;;;4995460;28;20267;-75
2023/10/17 01:40:09;;;;;;;4.17;2.20;;;8.50;99.90;;;;;;4993100;28;20636;-75
2023/10/17 01:42:37;;;;;;;3.90;2.27;;;8.40;99.90;;;;;;4991190;28;20229;-76
2023/10/17 01:45:06;;;;;;;4.80;2.30;;;8.40;99.90;;;;;;4992001;28;20190;-75
2023/10/17 01:47:32;;;;;;;4.00;2.27;;;8.40;99.90;;;;;;4991500;28;20190;-75
2023/10/17 01:49:57;;;;;;;5.60;2.10;;;8.40;99.90;;;;;;4991985;28;20762;-75
2023/10/17 01:52:24;;;;;;;3.90;2.00;;;8.40;99.90;;;;;;4984759;28;20216;-76
2023/10/17 01:54:50;;;;;;;2.97;2.23;;;8.40;99.90;;;;;;4991936;28;20227;-75
2023/10/17 01:57:17;;;;;;;4.00;1.80;;;8.40;99.90;;;;;;4996960;28;20224;-74
2023/10/17 01:59:42;;;;;;;2.67;1.90;;;8.40;99.90;;;;;;4999868;28;20182;-76
2023/10/17 02:02:08;;;;;;;3.90;2.07;;;8.40;99.90;;;;;;4996694;28;20755;-75
2023/10/17 02:04:35;;;;;;;2.27;1.67;;;8.30;99.90;;;;;;4998569;28;20213;-76
2023/10/17 02:07:02;;;;;;;3.03;2.00;;;8.40;99.90;;;;;;4998518;28;20209;-75
2023/10/17 02:11:55;;;;;;;2.23;1.53;;;8.40;99.90;;;;;;4986614;28;20189;-74
2023/10/17 02:14:22;;;;;;;4.87;2.20;;;8.40;99.90;;;;;;4992818;28;20217;-75
2023/10/17 02:16:48;;;;;;;3.93;1.93;;;8.40;99.90;;;;;;4993812;28;20218;-75
2023/10/17 02:19:15;;;;;;;2.60;1.50;;;8.40;99.90;;;;;;4995557;28;20680;-76
2023/10/17 02:21:43;;;;;;;3.97;2.40;;;8.40;99.90;;;;;;4993828;28;20225;-76
2023/10/17 02:24:09;;;;;;;5.87;2.10;;;8.40;99.90;;;;;;4991447;28;20213;-76
2023/10/17 02:26:59;;;;;;;3.37;1.70;;;8.40;99.90;;;;;;4991853;28;20241;-75
2023/10/17 02:29:26;;;;;;;3.00;2.03;;;8.40;99.90;;;;;;4991713;28;20279;-73
2023/10/17 02:31:54;;;;;;;4.47;1.80;;;8.40;99.90;;;;;;4986908;28;20562;-72
2023/10/17 02:34:23;;;;;;;3.50;1.63;;;8.30;99.90;;;;;;4983272;28;20218;-75
2023/10/17 02:36:54;;;;;;;2.17;1.80;;;8.40;99.90;;;;;;4992947;28;20315;-75
2023/10/17 02:39:23;;;;;;;3.33;2.10;;;8.40;99.90;;;;;;4991514;28;20177;-75
2023/10/17 02:42:03;;;;;;;4.00;2.00;;;8.30;99.90;;;;;;4998450;28;20841;-75
2023/10/17 02:44:31;;;;;;;2.00;1.60;;;8.40;99.90;;;;;;4995044;28;20209;-75
2023/10/17 02:46:58;;;;;;;1.87;1.47;;;8.40;99.90;;;;;;4996228;28;20213;-73
2023/10/17 02:49:28;;;;;;;2.20;1.83;;;8.40;99.90;;;;;;4995043;28;20581;-75
2023/10/17 02:51:54;;;;;;;3.23;2.20;;;8.40;99.90;;;;;;4988374;28;20228;-73
2023/10/17 02:54:20;;;;;;;2.97;1.60;;;8.40;99.90;;;;;;4984780;28;20213;-71
2023/10/17 02:56:46;;;;;;;2.77;1.60;;;8.40;99.90;;;;;;4981013;28;20253;-74
2023/10/17 02:59:12;;;;;;;4.27;2.00;;;8.40;99.90;;;;;;4987399;28;20292;-72
2023/10/17 03:01:40;;;;;;;3.50;1.90;;;8.40;99.90;;;;;;4989702;28;20217;-74
2023/10/17 03:04:17;;;;;;;3.50;1.93;;;8.40;99.90;;;;;;4985617;28;20219;-74
2023/10/17 03:06:44;;;;;;;3.50;1.93;;;8.40;99.90;;;;;;4988357;28;20701;-75
2023/10/17 03:09:34;;;;;;;3.57;2.37;;;8.40;99.90;;;;;;4987979;28;20181;-74
2023/10/17 03:17:10;;;;;;;2.40;1.70;;;8.40;99.90;;;;;;4982168;28;20641;-73
2023/10/17 03:19:37;;;;;;;2.30;2.00;;;8.30;99.90;;;;;;4988669;28;20209;-71
2023/10/17 03:22:24;;;;;;;4.10;1.93;;;8.40;99.90;;;;;;5006457;28;20223;-74
2023/10/17 03:25:02;;;;;;;3.00;1.97;;;8.40;99.90;;;;;;4990133;28;20237;-74
2023/10/17 03:27:36;;;;;;;3.20;2.10;;;8.30;99.90;;;;;;4989718;28;20217;-74
2023/10/17 03:30:14;;;;;;;3.93;2.03;;;8.30;99.90;;;;;;4988213;28;20197;-74
2023/10/17 03:33:26;;;;;;;3.27;1.93;;;8.30;99.90;;;;;;4983661;28;20717;-74
2023/10/17 03:35:35;;;;;;;2.60;1.80;;;8.30;99.90;;;;;;4988303;28;20257;-75
2023/10/17 03:38:02;;;;;;;3.07;1.87;;;8.30;99.90;;;;;;4991083;28;20595;-74
2023/10/17 03:40:41;;;;;;;2.47;1.70;;;8.30;99.90;;;;;;4992470;28;20219;-74
2023/10/17 03:43:14;;;;;;;3.20;1.83;;;8.30;99.90;;;;;;4988422;28;20244;-74
2023/10/17 03:45:43;;;;;;;4.23;2.00;;;8.30;99.90;;;;;;4992411;28;20305;-74
2023/10/17 03:48:15;;;;;;;2.23;1.90;;;8.40;99.90;;;;;;4993490;28;20201;-74
2023/10/17 03:53:29;;;;;;;3.67;2.00;;;8.40;99.90;;;;;;4985364;28;20249;-74
2023/10/17 03:56:00;;;;;;;3.97;2.13;;;8.40;99.90;;;;;;4989801;28;20918;-74
2023/10/17 04:01:07;;;;;;;6.97;2.40;;;8.40;99.90;;;;;;4988681;28;20218;-74
2023/10/17 04:03:34;;;;;;;2.80;1.70;;;8.50;99.90;;;;;;4989710;28;20284;-74
2023/10/17 04:08:49;;;;;;;4.00;1.97;;;8.50;99.90;;;;;;4993627;28;20225;-74
2023/10/17 04:13:51;;;;;;;3.37;1.93;;;8.50;99.90;;;;;;4992497;28;20304;-74
2023/10/17 04:16:22;;;;;;;3.77;2.10;;;8.40;99.90;;;;;;4990423;28;20220;-73
2023/10/17 04:19:00;;;;;;;3.90;2.20;;;8.40;99.90;;;;;;4991927;28;20228;-73
2023/10/17 04:22:02;;;;;;;2.87;2.10;;;8.40;99.90;;;;;;4991726;28;20228;-74
2023/10/17 04:24:33;;;;;;;5.40;2.47;;;8.40;99.90;;;;;;4990611;28;20704;-74
2023/10/17 04:29:38;;;;;;;7.00;2.60;;;8.40;99.90;;;;;;4990112;28;20240;-74
2023/10/17 04:32:13;;;;;;;5.93;2.20;;;8.50;99.90;;;;;;4990974;28;20209;-74
2023/10/17 04:34:48;;;;;;;2.87;2.13;;;8.40;99.90;;;;;;4989585;28;20218;-74
2023/10/17 04:37:24;;;;;;;7.10;2.60;;;8.50;99.90;;;;;;4986776;28;20205;-74
2023/10/17 04:39:57;;;;;;;6.00;2.37;;;8.50;99.90;;;;;;4991017;28;20260;-74
2023/10/17 04:45:13;;;;;;;3.43;2.20;;;8.50;99.90;;;;;;4991357;28;20232;-75
2023/10/17 04:47:40;;;;;;;4.33;2.10;;;8.50;99.90;;;;;;4992370;28;20578;-74
2023/10/17 04:50:11;;;;;;;3.13;2.17;;;8.50;99.90;;;;;;4992483;28;20205;-74
2023/10/17 04:52:41;;;;;;;4.40;2.50;;;8.50;99.90;;;;;;4992476;28;20214;-74
2023/10/17 04:55:21;;;;;;;5.40;2.70;;;8.50;99.90;;;;;;4993128;28;20241;-74
2023/10/17 05:03:14;;;;;;;5.10;2.40;;;8.50;99.90;;;;;;4996124;28;20189;-72
2023/10/17 05:08:33;;;;;;;4.20;2.53;;;8.60;99.90;;;;;;4995889;28;20208;-72
2023/10/17 06:17:20;;;;;;;3.10;2.57;;;8.80;99.90;;;;;;4997944;28;20349;-75
2023/10/17 06:19:46;;;;;;;4.40;2.60;;;8.80;99.90;;;;;;4996384;28;20301;-74
2023/10/17 06:27:12;;;;;;;8.07;2.60;;;8.90;99.90;;;;;;4996535;28;20237;-74
2023/10/17 06:34:33;;;;;;;5.37;2.57;;;9.00;99.90;;;;;;4989885;28;20674;-74
2023/10/17 06:37:00;;;;;;;4.07;2.40;;;9.00;99.90;;;;;;4988179;28;20205;-74
2023/10/17 06:39:36;;;;;;;5.23;2.20;;;9.10;99.90;;;;;;4989014;28;20630;-75
2023/10/17 06:42:14;;;;;;;8.47;3.60;;;9.00;99.90;;;;;;4983705;28;20202;-74
2023/10/17 06:44:52;;;;;;;3.40;2.50;;;9.00;99.90;;;;;;4990153;28;20182;-72
2023/10/17 06:47:19;;;;;;;3.27;2.47;;;9.10;99.90;;;;;;4989997;28;20271;-75
2023/10/17 06:54:58;;;;;;;6.07;2.50;;;9.10;99.90;;;;;;4998898;28;20217;-71
2023/10/17 06:57:24;;;;;;;7.37;2.77;;;9.20;99.90;;;;;;4998829;28;20319;-72
2023/10/17 06:59:54;;;;;;;5.90;2.87;;;9.30;99.90;;;;;;4995668;28;20260;-74
2023/10/17 07:03:03;;;;;;;4.37;2.50;;;9.40;99.90;;;;;;4990725;28;20213;-75
2023/10/17 07:05:10;;;;;;;5.03;2.33;;;9.50;99.90;;;;;;4990867;28;20210;-74
2023/10/17 07:07:52;;;;;;;3.80;2.40;;;9.50;99.90;;;;;;5005482;28;20584;-75
2023/10/17 07:10:36;;;;;;;4.10;2.47;;;9.40;99.90;;;;;;4996819;28;20300;-75
2023/10/17 07:13:41;;;;;;;4.60;2.37;;;9.50;99.90;;;;;;4996322;28;20220;-75
2023/10/17 07:16:16;;;;;;;5.70;2.27;;;9.50;99.90;;;;;;4993018;28;20220;-74
2023/10/17 07:18:46;;;;;;;6.40;2.60;;;9.50;99.90;;;;;;4988967;28;20703;-76
2023/10/17 07:21:16;;;;;;;7.17;2.40;;;9.50;99.90;;;;;;4991741;28;20284;-74
2023/10/17 07:23:44;;;;;;;5.97;2.13;;;9.40;99.90;;;;;;4993182;28;20609;-74
2023/10/17 07:26:17;;;;;;;4.67;2.30;;;9.50;99.90;;;;;;4998815;28;20221;-72
2023/10/17 07:28:44;;;;;;;2.43;1.77;;;9.60;99.90;;;;;;5001752;28;20205;-74
2023/10/17 07:31:13;;;;;;;2.63;1.77;;;9.60;99.90;;;;;;5002081;28;20311;-74
2023/10/17 07:33:46;;;;;;;4.03;2.03;;;9.70;99.90;;;;;;4995722;28;20914;-75
2023/10/17 07:36:15;;;;;;;4.33;1.97;;;9.80;99.90;;;;;;4994732;28;20284;-75
2023/10/17 07:38:43;;;;;;;4.30;2.00;;;9.80;99.90;;;;;;4997083;28;20208;-75
2023/10/17 07:41:32;;;;;;;3.67;2.10;;;9.90;99.90;;;;;;4994459;28;20268;-75
2023/10/17 07:44:05;;;;;;;3.97;2.20;;;10.10;99.90;;;;;;4997550;28;20206;-74
2023/10/17 07:46:34;;;;;;;3.03;1.60;;;10.20;99.90;;;;;;4997629;28;20209;-76
2023/10/17 07:49:05;;;;;;;2.33;1.53;;;10.20;99.90;;;;;;4996321;28;20610;-75
2023/10/17 07:51:32;;;;;;;2.97;1.67;;;10.10;99.90;;;;;;4994943;28;20240;-74
2023/10/17 07:53:58;;;;;;;1.30;1.20;;;10.30;99.90;;;;;;4986382;28;20261;-74
2023/10/17 07:56:25;;;;;;;5.33;1.33;;;10.40;99.90;;;;;;4993554;28;20293;-75
2023/10/17 07:59:04;;;;;;;3.27;1.60;;;10.60;99.90;;;;;;4992673;28;20305;-75
2023/10/17 08:01:41;;;;;;;2.30;1.20;;;10.60;99.90;;;;;;4992955;28;20241;-74
2023/10/17 08:06:42;;;;;;;1.47;1.03;;;11.00;99.90;;;;;;4998760;28;20686;-75
2023/10/17 08:09:36;;;;;;;2.10;1.23;;;11.20;99.90;;;;;;4999871;28;20600;-74
2023/10/17 08:11:59;;;;;;;2.40;1.13;;;11.30;99.90;;;;;;4991624;28;20173;-74
2023/10/17 08:15:30;;;;;;;1.17;0.97;;;11.40;99.90;;;;;;4993909;28;20247;-74
2023/10/17 08:17:20;;;;;;;2.63;1.23;;;11.40;99.90;;;;;;4997290;28;20221;-74
2023/10/17 08:20:00;;;;;;;2.33;0.83;;;11.40;99.90;;;;;;4996273;28;20259;-75
2023/10/17 08:22:54;;;;;;;3.33;1.53;;;11.50;99.90;;;;;;4997505;28;20220;-74
2023/10/17 08:25:20;;;;;;;2.97;1.40;;;11.30;99.90;;;;;;4995528;28;20237;-75
2023/10/17 08:27:46;;;;;;;2.42;1.63;;;11.30;99.90;;;;;;4995880;28;20687;-74
2023/10/17 08:30:16;;;;;;;3.37;1.53;;;11.50;99.90;;;;;;4996336;28;20182;-74
2023/10/17 08:35:36;;;;;;;7.00;1.35;;;12.00;99.90;;;;;;4989680;28;20721;-74
2023/10/17 08:38:03;;;;;;;2.17;1.50;;;12.10;99.90;;;;;;4991040;28;20217;-75
2023/10/17 08:40:29;;;;;;;3.40;1.40;;;11.90;99.90;;;;;;4998907;28;20224;-75
2023/10/17 08:42:56;;;;;;;2.92;1.25;;;12.00;99.90;;;;;;4999131;28;20734;-72
2023/10/17 08:45:26;;;;;;;4.43;1.13;;;12.20;99.90;;;;;;5000316;28;20596;-75
2023/10/17 08:47:59;;;;;;;3.05;1.10;;;12.20;99.90;;;;;;4999829;28;20196;-73
2023/10/17 08:50:25;;;;;;;2.20;1.30;;;12.30;99.90;;;;;;4989671;28;20219;-73
2023/10/17 08:52:51;;;;;;;3.33;1.00;;;12.50;99.90;;;;;;4990567;28;20692;-76
2023/10/17 08:55:20;;;;;;;3.55;1.50;;;12.70;99.90;;;;;;4995843;28;20210;-75
2023/10/17 08:57:46;;;;;;;4.68;1.15;;;13.00;99.90;;;;;;4994665;28;20213;-75
2023/10/17 09:02:43;;;;;;;7.43;1.15;;;13.10;99.90;;;;;;4999121;28;20731;-74
2023/10/17 09:05:18;;;;;;;7.05;1.30;;;13.30;99.90;;;;;;4993876;28;20214;-75
2023/10/17 09:07:55;;;;;;;1.33;0.70;;;13.60;99.90;;;;;;4991059;28;20205;-73
2023/10/17 09:10:28;;;;;;;1.27;1.00;;;13.60;99.90;;;;;;4987356;28;20263;-75
2023/10/17 09:15:48;;;;;;;1.58;1.13;;;13.70;99.90;;;;;;4994148;28;20220;-74
2023/10/17 09:18:14;;;;;;;1.38;0.88;;;13.50;99.90;;;;;;4998608;28;20205;-74
2023/10/17 09:20:41;;;;;;;4.18;1.20;;;13.40;99.90;;;;;;5001539;28;20223;-75
2023/10/17 09:23:24;;;;;;;1.60;1.05;;;13.40;99.90;;;;;;4997444;28;20732;-75
2023/10/17 09:25:58;;;;;;;1.33;0.60;;;13.50;99.90;;;;;;4997867;28;20213;-75
2023/10/17 09:28:25;;;;;;;0.88;0.47;;;13.60;99.90;;;;;;4999171;28;20739;-73
2023/10/17 09:31:06;;;;;;;2.80;0.52;;;13.70;99.90;;;;;;4997156;28;20691;-75
2023/10/17 09:33:32;;;;;;;0.55;0.35;;;13.40;99.90;;;;;;4987494;28;20225;-74
2023/10/17 09:35:59;;;;;;;3.72;1.55;;;13.20;99.90;;;;;;4988783;28;20189;-73
2023/10/17 09:38:29;;;;;;;1.40;0.73;;;13.40;99.90;;;;;;4990874;28;20247;-75
2023/10/17 09:41:01;;;;;;;1.27;0.40;;;13.20;99.90;;;;;;4993504;28;20308;-74
2023/10/17 09:43:29;;;;;;;0.65;0.40;;;13.20;99.90;;;;;;4993373;28;20209;-76
2023/10/17 09:46:02;;;;;;;0.45;0.43;;;13.20;99.90;;;;;;4992013;28;21045;-73
2023/10/17 09:48:36;;;;;;;1.17;0.75;;;13.20;99.90;;;;;;4992923;28;20288;-73
2023/10/17 09:51:03;;;;;;;0.90;0.45;;;13.30;99.90;;;;;;4992404;28;20178;-75
2023/10/17 09:53:38;;;;;;;2.22;0.50;;;13.30;99.90;;;;;;4992840;28;20228;-75
2023/10/17 09:56:08;;;;;;;1.80;0.65;;;13.40;99.90;;;;;;5013932;28;20209;-73
2023/10/17 09:58:38;;;;;;;2.90;0.95;;;13.50;99.90;;;;;;4994832;28;20224;-74
2023/10/17 10:01:13;;;;;;;1.45;0.68;;;13.60;99.90;;;;;;4996081;28;20711;-73
2023/10/17 10:03:40;;;;;;;2.17;0.47;;;13.50;99.90;;;;;;4997527;28;20737;-75
2023/10/17 10:06:27;;;;;;;1.05;0.38;;;13.30;99.90;;;;;;4995262;28;20600;-75
2023/10/17 10:09:14;;;;;;;0.93;0.60;;;13.20;99.90;;;;;;4998319;28;20249;-75
2023/10/17 10:11:52;;;;;;;1.33;0.70;;;12.80;99.90;;;;;;4996263;28;20209;-76
2023/10/17 10:14:23;;;;;;;1.65;0.73;;;12.60;99.90;;;;;;4988118;28;20313;-73
2023/10/17 10:16:57;;;;;;;2.63;0.80;;;12.60;99.90;;;;;;4992613;28;20744;-75
2023/10/17 10:19:27;;;;;;;0.80;0.50;;;12.40;99.90;;;;;;4989903;28;20206;-75
2023/10/17 10:21:58;;;;;;;1.67;0.77;;;12.60;99.90;;;;;;4988153;28;20217;-75
2023/10/17 10:24:26;;;;;;;5.38;1.02;;;12.60;99.90;;;;;;4992123;28;20213;-75
2023/10/17 10:27:19;;;;;;;1.05;0.50;;;12.60;99.90;;;;;;4990638;28;20201;-75
2023/10/17 10:29:52;;;;;;;2.17;0.75;;;12.60;99.90;;;;;;4996025;28;20209;-75
2023/10/17 10:32:38;;;;;;;2.15;0.30;;;12.50;99.90;;;;;;4992825;28;20210;-72
2023/10/17 10:35:05;;;;;;;1.25;0.50;;;12.50;99.90;;;;;;4986473;28;20209;-75
2023/10/17 10:37:32;;;;;;;1.10;0.25;;;12.50;99.90;;;;;;4996806;28;20218;-76
2023/10/17 10:40:22;;;;;;;0.50;0.40;;;12.60;99.90;;;;;;4995465;28;20204;-75
2023/10/17 10:42:50;;;;;;;0.85;0.43;;;12.50;99.90;;;;;;4987265;28;20277;-75
2023/10/17 10:45:36;;;;;;;1.13;0.60;;;12.50;99.90;;;;;;4994018;28;20174;-76
2023/10/17 10:48:04;;;;;;;2.67;0.32;;;12.50;99.90;;;;;;4993716;28;20383;-75
2023/10/17 10:50:34;;;;;;;0.95;0.43;;;12.60;99.90;;;;;;4992871;28;20269;-75
2023/10/17 10:53:01;;;;;;;0.98;0.40;;;12.60;99.90;;;;;;4989997;28;20210;-74
2023/10/17 10:55:27;;;;;;;0.85;0.68;;;12.60;99.90;;;;;;4987356;28;20293;-75
2023/10/17 10:57:53;;;;;;;1.13;0.50;;;12.40;99.90;;;;;;4989670;28;20281;-74
2023/10/17 11:00:20;;;;;;;1.02;0.45;;;12.40;99.90;;;;;;4984288;28;20652;-73
2023/10/17 11:02:46;;;;;;;1.45;0.60;;;12.50;99.90;;;;;;4989778;28;20203;-75
2023/10/17 11:05:14;;;;;;;1.27;0.68;;;12.50;99.90;;;;;;4988688;28;20594;-75
2023/10/17 11:07:41;;;;;;;1.00;0.60;;;12.50;99.90;;;;;;4991351;28;20312;-75
2023/10/17 11:10:10;;;;;;;1.05;0.73;;;12.50;99.90;;;;;;4997043;28;20239;-75
2023/10/17 11:12:37;;;;;;;1.50;0.60;;;12.50;99.90;;;;;;4995705;28;20308;-75
2023/10/17 11:15:15;;;;;;;1.95;0.70;;;12.40;99.90;;;;;;4997016;28;20204;-74
2023/10/17 11:17:42;;;;;;;1.70;0.73;;;12.40;99.90;;;;;;4997135;28;20202;-75
2023/10/17 11:20:17;;;;;;;3.30;0.55;;;12.50;99.90;;;;;;5010915;28;20634;-76
2023/10/17 11:22:44;;;;;;;1.15;0.88;;;12.40;99.90;;;;;;4987773;28;20303;-75
2023/10/17 11:25:27;;;;;;;1.00;0.70;;;12.30;99.90;;;;;;4987221;28;20217;-75
2023/10/17 11:27:55;;;;;;;2.15;1.00;;;12.30;99.90;;;;;;4989788;28;20909;-75
2023/10/17 11:30:32;;;;;;;1.48;0.68;;;12.40;99.90;;;;;;4992207;28;20429;-75
2023/10/17 11:33:04;;;;;;;1.58;0.73;;;12.50;99.90;;;;;;4992615;28;20859;-75
2023/10/17 11:35:34;;;;;;;2.75;0.65;;;12.60;99.90;;;;;;4988255;28;20216;-75
2023/10/17 11:38:00;;;;;;;2.63;0.70;;;12.50;99.90;;;;;;4982040;28;20646;-74
2023/10/17 11:40:44;;;;;;;2.10;1.40;;;12.30;99.90;;;;;;4991187;28;20209;-74
2023/10/17 11:43:21;;;;;;;1.27;0.88;;;12.40;99.90;;;;;;4985455;28;20217;-75
2023/10/17 11:45:47;;;;;;;1.65;0.88;;;12.40;99.90;;;;;;4991617;28;20204;-75
2023/10/17 11:48:30;;;;;;;2.10;0.83;;;12.40;99.90;;;;;;4994828;28;20202;-75
2023/10/17 11:51:13;;;;;;;2.28;0.82;;;12.40;99.90;;;;;;4991904;28;20205;-73
2023/10/17 11:54:05;;;;;;;0.43;0.30;;;12.40;99.90;;;;;;4997155;28;20248;-74
2023/10/17 11:56:36;;;;;;;0.82;0.47;;;12.50;99.90;;;;;;4997251;28;20225;-76
2023/10/17 11:59:05;;;;;;;1.25;0.80;;;12.30;99.90;;;;;;4999244;28;20747;-75
2023/10/17 12:01:32;;;;;;;1.60;0.73;;;12.30;99.90;;;;;;4983080;28;20245;-75
2023/10/17 12:03:59;;;;;;;1.52;1.35;;;12.40;99.90;;;;;;5001197;28;20225;-76
2023/10/17 12:06:28;;;;;;;0.88;0.40;;;12.30;99.90;;;;;;4993917;28;20649;-75
2023/10/17 12:08:56;;;;;;;2.13;0.77;;;12.40;99.90;;;;;;4993595;28;20181;-76
2023/10/17 12:11:24;;;;;;;0.90;0.52;;;12.30;99.90;;;;;;4983618;28;20595;-75
2023/10/17 12:13:53;;;;;;;1.73;1.00;;;12.40;99.90;;;;;;4990758;28;20216;-75
2023/10/17 12:16:25;;;;;;;1.05;0.45;;;12.40;99.90;;;;;;4990608;28;20299;-74
2023/10/17 12:18:52;;;;;;;1.15;0.50;;;12.30;99.90;;;;;;4992930;28;20231;-75
2023/10/17 12:21:18;;;;;;;2.05;0.50;;;12.30;99.90;;;;;;4999478;28;20229;-75
2023/10/17 12:23:45;;;;;;;1.23;0.50;;;12.40;99.90;;;;;;5003190;28;20174;-75
2023/10/17 12:26:14;;;;;;;1.80;0.97;;;12.40;99.90;;;;;;5000178;28;20205;-75
2023/10/17 12:28:43;;;;;;;0.90;0.50;;;12.50;99.90;;;;;;5001234;28;20643;-75
2023/10/17 12:31:16;;;;;;;1.20;0.50;;;12.50;99.90;;;;;;4999797;28;21013;-75
2023/10/17 12:33:44;;;;;;;2.93;0.57;;;12.40;99.90;;;;;;4996868;28;20213;-75
2023/10/17 12:36:09;;;;;;;1.13;0.75;;;12.50;99.90;;;;;;4987328;28;20549;-74
2023/10/17 12:38:35;;;;;;;1.55;0.60;;;12.50;99.90;;;;;;4987579;28;20192;-73
2023/10/17 12:41:06;;;;;;;0.77;0.60;;;12.50;99.90;;;;;;4993702;28;20228;-75
2023/10/17 12:43:35;;;;;;;0.98;0.55;;;12.50;99.90;;;;;;4995754;28;20688;-75
2023/10/17 12:46:02;;;;;;;0.52;0.50;;;12.50;99.90;;;;;;4995412;28;20296;-75
2023/10/17 12:48:28;;;;;;;0.50;0.40;;;12.50;99.90;;;;;;4994776;28;20205;-75
2023/10/17 12:50:54;;;;;;;2.03;0.90;;;12.40;99.90;;;;;;4995562;28;20173;-75
2023/10/17 12:53:19;;;;;;;0.97;0.60;;;12.40;99.90;;;;;;4992329;28;20279;-75
2023/10/17 12:55:45;;;;;;;1.23;0.65;;;12.40;99.90;;;;;;4992689;28;20213;-75
2023/10/17 12:58:11;;;;;;;2.83;0.40;;;12.50;99.90;;;;;;4982207;28;20598;-75
2023/10/17 13:00:41;;;;;;;7.53;1.13;;;12.40;99.90;;;;;;4996145;28;20209;-74
2023/10/17 13:03:07;;;;;;;0.98;0.60;;;12.50;99.90;;;;;;4998848;28;20501;-75
2023/10/17 13:05:33;;;;;;;1.00;0.70;;;12.40;99.90;;;;;;4999557;28;20185;-73
2023/10/17 13:07:58;;;;;;;1.20;0.57;;;12.30;99.90;;;;;;4992930;28;20784;-74
2023/10/17 13:10:26;;;;;;;0.65;0.40;;;12.30;99.90;;;;;;4994862;28;20851;-73
2023/10/17 13:12:52;;;;;;;1.20;0.50;;;12.40;99.90;;;;;;4987010;28;20706;-75
2023/10/17 13:15:17;;;;;;;0.63;0.50;;;12.30;99.90;;;;;;4990012;28;20189;-74
2023/10/17 13:17:44;;;;;;;2.55;0.70;;;12.30;99.90;;;;;;4993608;28;20198;-76
2023/10/17 13:20:10;;;;;;;1.27;0.57;;;12.40;99.90;;;;;;5008026;28;20213;-76
2023/10/17 13:22:42;;;;;;;0.70;0.50;;;12.40;99.90;;;;;;4993684;28;20222;-75
2023/10/17 13:25:10;;;;;;;3.87;0.80;;;12.40;99.90;;;;;;4993236;28;20296;-74
2023/10/17 13:27:37;;;;;;;2.43;0.83;;;12.30;99.90;;;;;;4990786;28;20222;-74
2023/10/17 13:30:05;;;;;;;0.40;0.30;;;12.30;99.90;;;;;;4993147;28;20173;-74
2023/10/17 13:32:31;;;;;;;1.10;0.60;;;12.20;99.90;;;;;;4986666;28;20653;-75
2023/10/17 13:34:57;;;;;;;3.70;0.70;;;12.20;99.90;;;;;;4993083;28;20227;-73
2023/10/17 13:37:23;;;;;;;3.93;0.90;;;12.20;99.90;;;;;;4991364;28;20708;-74
2023/10/17 13:39:48;;;;;;;1.77;0.70;;;12.30;99.90;;;;;;4998641;28;20209;-75
2023/10/17 13:42:15;;;;;;;1.70;0.63;;;12.30;99.90;;;;;;4997059;28;20207;-75
2023/10/17 13:44:41;;;;;;;0.57;0.57;;;12.30;99.90;;;;;;4996863;28;20645;-74
2023/10/17 13:47:09;;;;;;;2.58;0.80;;;12.40;99.90;;;;;;4998069;28;20212;-75
2023/10/17 13:49:35;;;;;;;2.03;0.65;;;12.30;99.90;;;;;;4996302;28;20272;-72
2023/10/17 13:52:03;;;;;;;1.27;0.77;;;12.40;99.90;;;;;;4992792;28;20201;-75
2023/10/17 13:54:34;;;;;;;0.80;0.50;;;12.40;99.90;;;;;;4988797;28;20264;-75
2023/10/17 13:57:00;;;;;;;1.00;0.50;;;12.40;99.90;;;;;;4988733;28;20210;-74
2023/10/17 13:59:38;;;;;;;0.80;0.60;;;12.30;99.90;;;;;;4993062;28;20256;-75
2023/10/17 14:02:08;;;;;;;3.47;0.50;;;12.40;99.90;;;;;;4993440;28;20245;-76
2023/10/17 14:04:36;;;;;;;0.57;0.57;;;12.50;99.90;;;;;;4994971;28;20213;-75
2023/10/17 14:07:03;;;;;;;1.60;0.90;;;12.50;99.90;;;;;;4991794;28;20299;-75
2023/10/17 14:09:30;;;;;;;3.43;0.70;;;12.40;99.90;;;;;;5002942;28;20260;-74
2023/10/17 14:11:56;;;;;;;1.80;0.63;;;12.40;99.90;;;;;;4996219;28;20240;-71
2023/10/17 14:14:25;;;;;;;2.20;0.90;;;12.40;99.90;;;;;;4985087;28;20218;-75
2023/10/17 14:16:51;;;;;;;1.23;0.60;;;12.40;99.90;;;;;;4996750;28;20237;-73
2023/10/17 14:19:37;;;;;;;1.23;0.67;;;12.20;99.90;;;;;;4994649;28;20204;-75
2023/10/17 14:27:22;;;;;;;2.70;0.60;;;12.00;99.90;;;;;;4995267;28;20543;-75
2023/10/17 14:29:49;;;;;;;2.83;1.00;;;12.00;99.90;;;;;;4993608;28;20178;-73
2023/10/17 14:32:23;;;;;;;1.23;0.97;;;12.10;99.90;;;;;;4984303;28;20210;-75
2023/10/17 14:34:49;;;;;;;3.00;1.00;;;12.20;99.90;;;;;;4992227;28;20221;-76
2023/10/17 14:37:15;;;;;;;1.37;0.90;;;12.30;99.90;;;;;;4984164;28;20662;-74
2023/10/17 14:39:45;;;;;;;0.80;0.60;;;12.30;99.90;;;;;;4987465;28;20214;-74
2023/10/17 14:42:13;;;;;;;2.63;0.60;;;12.20;99.90;;;;;;4990477;28;20734;-75
2023/10/17 14:44:41;;;;;;;2.50;0.70;;;12.20;99.90;;;;;;4991170;28;20182;-75
2023/10/17 14:47:07;;;;;;;0.90;0.60;;;12.20;99.90;;;;;;4994540;28;20208;-74
2023/10/17 14:49:33;;;;;;;0.70;0.60;;;12.10;99.90;;;;;;4999154;28;20209;-75
2023/10/17 14:51:58;;;;;;;6.33;1.90;;;12.00;99.90;;;;;;4997512;28;20268;-74
2023/10/17 14:54:24;;;;;;;1.00;0.40;;;12.00;99.90;;;;;;4986036;28;20225;-74
2023/10/17 14:56:50;;;;;;;1.43;0.50;;;11.90;99.90;;;;;;4995183;28;20300;-76
2023/10/17 14:59:17;;;;;;;2.30;0.47;;;11.90;99.90;;;;;;4994223;28;20639;-75
2023/10/17 15:01:43;;;;;;;1.03;0.40;;;11.90;99.90;;;;;;4994560;28;20224;-72
2023/10/17 15:04:10;;;;;;;1.17;0.50;;;11.90;99.90;;;;;;4992743;28;20253;-73
2023/10/17 15:06:36;;;;;;;2.97;0.73;;;11.90;99.90;;;;;;4987319;28;20221;-74
2023/10/17 15:09:05;;;;;;;0.97;0.57;;;11.90;99.90;;;;;;4988951;28;20177;-74
2023/10/17 15:11:32;;;;;;;1.20;0.67;;;12.00;99.90;;;;;;4984808;28;20618;-74
2023/10/17 15:13:59;;;;;;;1.20;1.00;;;12.00;99.90;;;;;;4987931;28;20301;-74
2023/10/17 15:16:25;;;;;;;1.00;0.70;;;12.00;99.90;;;;;;4990152;28;20744;-74
2023/10/17 15:18:54;;;;;;;3.00;1.23;;;11.90;99.90;;;;;;4990817;28;20309;-74
2023/10/17 15:21:21;;;;;;;3.67;0.80;;;11.80;99.90;;;;;;4990948;28;22129;-74
2023/10/17 15:23:47;;;;;;;2.63;0.70;;;11.70;99.90;;;;;;4991493;28;20269;-72
2023/10/17 15:26:13;;;;;;;1.40;1.00;;;11.70;99.90;;;;;;4996714;28;20217;-72
2023/10/17 15:28:47;;;;;;;1.30;0.80;;;11.60;99.90;;;;;;4984936;28;20214;-74